sensor_id;sensor_type;location;lat;lon;timestamp;P1;durP1;ratioP1;P2;durP2;ratioP2
50547;SDS011;38013;48.810;8.818;2023-04-24T00:01:21;1.17;;;0.40;;
50547;SDS011;38013;48.810;8.818;2023-04-24T00:03:47;3.05;;;0.50;;
50547;SDS011;38013;48.810;8.818;2023-04-24T00:06:14;1.73;;;0.68;;
50547;SDS011;38013;48.810;8.818;2023-04-24T00:08:43;3.97;;;0.80;;
50547;SDS011;38013;48.810;8.818;2023-04-24T00:11:10;1.30;;;0.50;;
50547;SDS011;38013;48.810;8.818;2023-04-24T00:13:37;1.65;;;0.50;;
50547;SDS011;38013;48.810;8.818;2023-04-24T00:16:04;1.83;;;0.50;;
50547;SDS011;38013;48.810;8.818;2023-04-24T00:18:31;2.30;;;0.70;;
50547;SDS011;38013;48.810;8.818;2023-04-24T00:20:58;2.67;;;0.60;;
50547;SDS011;38013;48.810;8.818;2023-04-24T00:23:26;1.42;;;0.52;;
50547;SDS011;38013;48.810;8.818;2023-04-24T00:25:52;7.20;;;0.60;;
50547;SDS011;38013;48.810;8.818;2023-04-24T00:28:19;0.98;;;0.40;;
50547;SDS011;38013;48.810;8.818;2023-04-24T00:30:46;2.13;;;0.60;;
50547;SDS011;38013;48.810;8.818;2023-04-24T00:33:13;1.45;;;0.57;;
50547;SDS011;38013;48.810;8.818;2023-04-24T00:35:40;3.15;;;0.60;;
50547;SDS011;38013;48.810;8.818;2023-04-24T00:38:07;1.33;;;0.40;;
50547;SDS011;38013;48.810;8.818;2023-04-24T00:40:34;2.78;;;0.50;;
50547;SDS011;38013;48.810;8.818;2023-04-24T00:43:01;1.20;;;0.50;;
50547;SDS011;38013;48.810;8.818;2023-04-24T00:45:28;1.83;;;0.60;;
50547;SDS011;38013;48.810;8.818;2023-04-24T00:47:57;2.75;;;0.70;;
50547;SDS011;38013;48.810;8.818;2023-04-24T00:50:24;1.40;;;0.57;;
50547;SDS011;38013;48.810;8.818;2023-04-24T00:52:52;1.23;;;0.50;;
50547;SDS011;38013;48.810;8.818;2023-04-24T00:55:19;3.33;;;0.60;;
50547;SDS011;38013;48.810;8.818;2023-04-24T00:57:47;1.42;;;0.50;;
50547;SDS011;38013;48.810;8.818;2023-04-24T01:00:15;1.00;;;0.40;;
50547;SDS011;38013;48.810;8.818;2023-04-24T01:02:43;1.55;;;0.52;;
50547;SDS011;38013;48.810;8.818;2023-04-24T01:05:12;3.00;;;0.83;;
50547;SDS011;38013;48.810;8.818;2023-04-24T01:07:43;1.27;;;0.45;;
50547;SDS011;38013;48.810;8.818;2023-04-24T01:10:13;0.93;;;0.43;;
50547;SDS011;38013;48.810;8.818;2023-04-24T01:12:41;1.83;;;0.40;;
50547;SDS011;38013;48.810;8.818;2023-04-24T01:15:08;0.68;;;0.40;;
50547;SDS011;38013;48.810;8.818;2023-04-24T01:17:36;1.85;;;0.47;;
50547;SDS011;38013;48.810;8.818;2023-04-24T01:20:04;2.20;;;0.50;;
50547;SDS011;38013;48.810;8.818;2023-04-24T01:22:33;1.88;;;0.63;;
50547;SDS011;38013;48.810;8.818;2023-04-24T01:25:01;1.15;;;0.50;;
50547;SDS011;38013;48.810;8.818;2023-04-24T01:27:29;2.47;;;0.50;;
50547;SDS011;38013;48.810;8.818;2023-04-24T01:29:56;1.40;;;0.40;;
50547;SDS011;38013;48.810;8.818;2023-04-24T01:32:24;0.70;;;0.43;;
50547;SDS011;38013;48.810;8.818;2023-04-24T01:34:51;3.92;;;0.50;;
50547;SDS011;38013;48.810;8.818;2023-04-24T01:37:19;1.75;;;0.50;;
50547;SDS011;38013;48.810;8.818;2023-04-24T01:39:46;0.50;;;0.30;;
50547;SDS011;38013;48.810;8.818;2023-04-24T01:42:13;1.02;;;0.40;;
50547;SDS011;38013;48.810;8.818;2023-04-24T01:44:41;1.70;;;0.40;;
50547;SDS011;38013;48.810;8.818;2023-04-24T01:47:08;2.20;;;0.60;;
50547;SDS011;38013;48.810;8.818;2023-04-24T01:49:37;1.50;;;0.55;;
50547;SDS011;38013;48.810;8.818;2023-04-24T01:52:06;1.05;;;0.50;;
50547;SDS011;38013;48.810;8.818;2023-04-24T01:54:33;2.58;;;0.50;;
50547;SDS011;38013;48.810;8.818;2023-04-24T01:57:00;0.80;;;0.40;;
50547;SDS011;38013;48.810;8.818;2023-04-24T01:59:28;1.58;;;0.45;;
50547;SDS011;38013;48.810;8.818;2023-04-24T02:01:58;1.88;;;0.68;;
50547;SDS011;38013;48.810;8.818;2023-04-24T02:04:25;2.28;;;0.50;;
50547;SDS011;38013;48.810;8.818;2023-04-24T02:06:52;2.13;;;0.50;;
50547;SDS011;38013;48.810;8.818;2023-04-24T02:09:19;2.88;;;0.60;;
50547;SDS011;38013;48.810;8.818;2023-04-24T02:11:46;1.25;;;0.70;;
50547;SDS011;38013;48.810;8.818;2023-04-24T02:14:13;2.63;;;0.60;;
50547;SDS011;38013;48.810;8.818;2023-04-24T02:16:40;1.08;;;0.57;;
50547;SDS011;38013;48.810;8.818;2023-04-24T02:19:07;2.53;;;0.55;;
50547;SDS011;38013;48.810;8.818;2023-04-24T02:21:34;1.42;;;0.50;;
50547;SDS011;38013;48.810;8.818;2023-04-24T02:24:00;2.20;;;0.60;;
50547;SDS011;38013;48.810;8.818;2023-04-24T02:26:28;1.42;;;0.40;;
50547;SDS011;38013;48.810;8.818;2023-04-24T02:28:57;1.55;;;0.50;;
50547;SDS011;38013;48.810;8.818;2023-04-24T02:31:24;5.82;;;0.70;;
50547;SDS011;38013;48.810;8.818;2023-04-24T02:33:51;0.88;;;0.47;;
50547;SDS011;38013;48.810;8.818;2023-04-24T02:36:18;1.35;;;0.40;;
50547;SDS011;38013;48.810;8.818;2023-04-24T02:38:47;1.33;;;0.50;;
50547;SDS011;38013;48.810;8.818;2023-04-24T02:41:14;0.45;;;0.35;;
50547;SDS011;38013;48.810;8.818;2023-04-24T02:43:41;2.83;;;0.90;;
50547;SDS011;38013;48.810;8.818;2023-04-24T02:46:08;3.05;;;0.43;;
50547;SDS011;38013;48.810;8.818;2023-04-24T02:48:35;1.70;;;0.60;;
50547;SDS011;38013;48.810;8.818;2023-04-24T02:51:02;1.58;;;0.68;;
50547;SDS011;38013;48.810;8.818;2023-04-24T02:53:30;0.68;;;0.40;;
50547;SDS011;38013;48.810;8.818;2023-04-24T02:55:57;2.20;;;0.50;;
50547;SDS011;38013;48.810;8.818;2023-04-24T02:58:24;1.00;;;0.50;;
50547;SDS011;38013;48.810;8.818;2023-04-24T03:00:54;3.10;;;0.80;;
50547;SDS011;38013;48.810;8.818;2023-04-24T03:03:22;1.98;;;0.50;;
50547;SDS011;38013;48.810;8.818;2023-04-24T03:05:50;0.65;;;0.40;;
50547;SDS011;38013;48.810;8.818;2023-04-24T03:08:17;1.67;;;0.52;;
50547;SDS011;38013;48.810;8.818;2023-04-24T03:10:44;2.90;;;0.50;;
50547;SDS011;38013;48.810;8.818;2023-04-24T03:13:14;0.95;;;0.45;;
50547;SDS011;38013;48.810;8.818;2023-04-24T03:15:42;2.97;;;0.55;;
50547;SDS011;38013;48.810;8.818;2023-04-24T03:18:09;1.65;;;0.47;;
50547;SDS011;38013;48.810;8.818;2023-04-24T03:20:37;0.80;;;0.40;;
50547;SDS011;38013;48.810;8.818;2023-04-24T03:23:04;0.90;;;0.40;;
50547;SDS011;38013;48.810;8.818;2023-04-24T03:25:31;2.45;;;0.45;;
50547;SDS011;38013;48.810;8.818;2023-04-24T03:27:58;1.98;;;0.70;;
50547;SDS011;38013;48.810;8.818;2023-04-24T03:30:41;2.50;;;0.50;;
50547;SDS011;38013;48.810;8.818;2023-04-24T03:33:09;1.10;;;0.40;;
50547;SDS011;38013;48.810;8.818;2023-04-24T03:35:43;1.17;;;0.60;;
50547;SDS011;38013;48.810;8.818;2023-04-24T03:38:11;2.75;;;0.60;;
50547;SDS011;38013;48.810;8.818;2023-04-24T03:40:53;3.00;;;0.40;;
50547;SDS011;38013;48.810;8.818;2023-04-24T03:43:40;0.95;;;0.50;;
50547;SDS011;38013;48.810;8.818;2023-04-24T03:46:07;1.15;;;0.40;;
50547;SDS011;38013;48.810;8.818;2023-04-24T03:48:40;2.33;;;0.60;;
50547;SDS011;38013;48.810;8.818;2023-04-24T03:51:08;1.60;;;0.40;;
50547;SDS011;38013;48.810;8.818;2023-04-24T03:53:38;2.53;;;0.80;;
50547;SDS011;38013;48.810;8.818;2023-04-24T03:56:06;1.65;;;0.60;;
50547;SDS011;38013;48.810;8.818;2023-04-24T03:58:33;0.68;;;0.40;;
50547;SDS011;38013;48.810;8.818;2023-04-24T04:01:00;1.70;;;0.80;;
50547;SDS011;38013;48.810;8.818;2023-04-24T04:03:47;1.65;;;0.60;;
50547;SDS011;38013;48.810;8.818;2023-04-24T04:06:18;1.38;;;0.60;;
50547;SDS011;38013;48.810;8.818;2023-04-24T04:08:46;2.55;;;0.70;;
50547;SDS011;38013;48.810;8.818;2023-04-24T04:11:12;1.65;;;0.77;;
50547;SDS011;38013;48.810;8.818;2023-04-24T04:13:39;2.92;;;0.47;;
50547;SDS011;38013;48.810;8.818;2023-04-24T04:16:06;1.00;;;0.60;;
50547;SDS011;38013;48.810;8.818;2023-04-24T04:18:36;0.90;;;0.50;;
50547;SDS011;38013;48.810;8.818;2023-04-24T04:21:05;4.45;;;0.68;;
50547;SDS011;38013;48.810;8.818;2023-04-24T04:23:33;1.10;;;0.60;;
50547;SDS011;38013;48.810;8.818;2023-04-24T04:26:14;1.20;;;0.60;;
50547;SDS011;38013;48.810;8.818;2023-04-24T04:29:07;0.63;;;0.50;;
50547;SDS011;38013;48.810;8.818;2023-04-24T04:31:38;1.42;;;0.65;;
50547;SDS011;38013;48.810;8.818;2023-04-24T04:34:10;1.17;;;0.50;;
50547;SDS011;38013;48.810;8.818;2023-04-24T04:36:39;2.03;;;0.60;;
50547;SDS011;38013;48.810;8.818;2023-04-24T04:39:22;5.15;;;0.70;;
50547;SDS011;38013;48.810;8.818;2023-04-24T04:42:00;1.00;;;0.50;;
50547;SDS011;38013;48.810;8.818;2023-04-24T04:44:35;2.05;;;0.70;;
50547;SDS011;38013;48.810;8.818;2023-04-24T04:47:03;1.10;;;0.57;;
50547;SDS011;38013;48.810;8.818;2023-04-24T04:49:36;0.70;;;0.50;;
50547;SDS011;38013;48.810;8.818;2023-04-24T04:52:14;2.10;;;0.70;;
50547;SDS011;38013;48.810;8.818;2023-04-24T04:54:45;2.08;;;0.70;;
50547;SDS011;38013;48.810;8.818;2023-04-24T04:57:12;1.65;;;0.63;;
50547;SDS011;38013;48.810;8.818;2023-04-24T04:59:39;2.22;;;0.65;;
50547;SDS011;38013;48.810;8.818;2023-04-24T05:02:13;2.10;;;0.77;;
50547;SDS011;38013;48.810;8.818;2023-04-24T05:04:40;1.15;;;0.70;;
50547;SDS011;38013;48.810;8.818;2023-04-24T05:07:07;1.88;;;0.70;;
50547;SDS011;38013;48.810;8.818;2023-04-24T05:09:38;1.33;;;0.75;;
50547;SDS011;38013;48.810;8.818;2023-04-24T05:12:05;1.75;;;0.60;;
50547;SDS011;38013;48.810;8.818;2023-04-24T05:14:40;1.08;;;0.63;;
50547;SDS011;38013;48.810;8.818;2023-04-24T05:17:07;3.03;;;0.70;;
50547;SDS011;38013;48.810;8.818;2023-04-24T05:19:34;1.65;;;0.90;;
50547;SDS011;38013;48.810;8.818;2023-04-24T05:24:38;2.15;;;0.80;;
50547;SDS011;38013;48.810;8.818;2023-04-24T05:27:32;1.50;;;0.63;;
50547;SDS011;38013;48.810;8.818;2023-04-24T05:30:02;1.60;;;0.77;;
50547;SDS011;38013;48.810;8.818;2023-04-24T05:32:31;1.77;;;0.70;;
50547;SDS011;38013;48.810;8.818;2023-04-24T05:34:58;2.38;;;0.82;;
50547;SDS011;38013;48.810;8.818;2023-04-24T05:37:25;3.75;;;1.00;;
50547;SDS011;38013;48.810;8.818;2023-04-24T05:39:52;1.92;;;0.90;;
50547;SDS011;38013;48.810;8.818;2023-04-24T05:42:19;3.78;;;1.10;;
50547;SDS011;38013;48.810;8.818;2023-04-24T05:44:46;2.45;;;1.00;;
50547;SDS011;38013;48.810;8.818;2023-04-24T05:47:13;4.45;;;1.15;;
50547;SDS011;38013;48.810;8.818;2023-04-24T05:49:40;1.88;;;0.98;;
50547;SDS011;38013;48.810;8.818;2023-04-24T05:52:07;2.22;;;0.95;;
50547;SDS011;38013;48.810;8.818;2023-04-24T05:54:36;2.90;;;1.00;;
50547;SDS011;38013;48.810;8.818;2023-04-24T05:57:03;2.10;;;1.00;;
50547;SDS011;38013;48.810;8.818;2023-04-24T05:59:47;2.50;;;0.95;;
50547;SDS011;38013;48.810;8.818;2023-04-24T06:02:15;1.85;;;0.90;;
50547;SDS011;38013;48.810;8.818;2023-04-24T06:04:43;2.20;;;1.10;;
50547;SDS011;38013;48.810;8.818;2023-04-24T06:07:11;2.42;;;1.10;;
50547;SDS011;38013;48.810;8.818;2023-04-24T06:09:40;3.00;;;1.15;;
50547;SDS011;38013;48.810;8.818;2023-04-24T06:12:08;2.78;;;0.90;;
50547;SDS011;38013;48.810;8.818;2023-04-24T06:14:49;2.50;;;1.00;;
50547;SDS011;38013;48.810;8.818;2023-04-24T06:17:21;1.52;;;0.90;;
50547;SDS011;38013;48.810;8.818;2023-04-24T06:19:49;3.55;;;1.20;;
50547;SDS011;38013;48.810;8.818;2023-04-24T06:22:17;2.08;;;1.10;;
50547;SDS011;38013;48.810;8.818;2023-04-24T06:24:46;3.28;;;0.90;;
50547;SDS011;38013;48.810;8.818;2023-04-24T06:27:14;4.95;;;1.25;;
50547;SDS011;38013;48.810;8.818;2023-04-24T06:29:41;4.70;;;1.30;;
50547;SDS011;38013;48.810;8.818;2023-04-24T06:32:08;3.28;;;1.30;;
50547;SDS011;38013;48.810;8.818;2023-04-24T06:34:36;1.63;;;1.08;;
50547;SDS011;38013;48.810;8.818;2023-04-24T06:37:03;2.30;;;1.15;;
50547;SDS011;38013;48.810;8.818;2023-04-24T06:39:30;2.10;;;1.20;;
50547;SDS011;38013;48.810;8.818;2023-04-24T06:41:56;2.53;;;1.10;;
50547;SDS011;38013;48.810;8.818;2023-04-24T06:44:23;4.00;;;1.27;;
50547;SDS011;38013;48.810;8.818;2023-04-24T06:46:51;2.83;;;1.05;;
50547;SDS011;38013;48.810;8.818;2023-04-24T06:49:18;3.47;;;1.10;;
50547;SDS011;38013;48.810;8.818;2023-04-24T06:51:44;2.05;;;1.05;;
50547;SDS011;38013;48.810;8.818;2023-04-24T06:54:11;2.60;;;1.13;;
50547;SDS011;38013;48.810;8.818;2023-04-24T06:56:38;3.42;;;1.20;;
50547;SDS011;38013;48.810;8.818;2023-04-24T06:59:05;3.33;;;1.13;;
50547;SDS011;38013;48.810;8.818;2023-04-24T07:01:32;2.15;;;1.02;;
50547;SDS011;38013;48.810;8.818;2023-04-24T07:03:59;3.35;;;1.02;;
50547;SDS011;38013;48.810;8.818;2023-04-24T07:06:27;2.10;;;1.10;;
50547;SDS011;38013;48.810;8.818;2023-04-24T07:08:54;4.13;;;1.20;;
50547;SDS011;38013;48.810;8.818;2023-04-24T07:11:22;2.70;;;1.05;;
50547;SDS011;38013;48.810;8.818;2023-04-24T07:13:48;2.58;;;1.10;;
50547;SDS011;38013;48.810;8.818;2023-04-24T07:16:15;2.70;;;1.05;;
50547;SDS011;38013;48.810;8.818;2023-04-24T07:18:42;2.83;;;1.20;;
50547;SDS011;38013;48.810;8.818;2023-04-24T07:21:09;1.80;;;1.00;;
50547;SDS011;38013;48.810;8.818;2023-04-24T07:23:37;2.30;;;1.00;;
50547;SDS011;38013;48.810;8.818;2023-04-24T07:26:04;2.50;;;1.10;;
50547;SDS011;38013;48.810;8.818;2023-04-24T07:28:31;2.92;;;1.10;;
50547;SDS011;38013;48.810;8.818;2023-04-24T07:30:58;1.42;;;0.90;;
50547;SDS011;38013;48.810;8.818;2023-04-24T07:33:26;1.80;;;0.90;;
50547;SDS011;38013;48.810;8.818;2023-04-24T07:35:53;2.63;;;1.00;;
50547;SDS011;38013;48.810;8.818;2023-04-24T07:38:20;5.55;;;1.20;;
50547;SDS011;38013;48.810;8.818;2023-04-24T07:40:48;2.60;;;1.30;;
50547;SDS011;38013;48.810;8.818;2023-04-24T07:43:15;4.78;;;1.17;;
50547;SDS011;38013;48.810;8.818;2023-04-24T07:45:42;4.47;;;1.20;;
50547;SDS011;38013;48.810;8.818;2023-04-24T07:48:09;2.72;;;1.10;;
50547;SDS011;38013;48.810;8.818;2023-04-24T07:50:36;2.47;;;1.00;;
50547;SDS011;38013;48.810;8.818;2023-04-24T07:53:03;2.15;;;1.00;;
50547;SDS011;38013;48.810;8.818;2023-04-24T07:55:30;2.42;;;0.90;;
50547;SDS011;38013;48.810;8.818;2023-04-24T07:57:57;3.58;;;1.20;;
50547;SDS011;38013;48.810;8.818;2023-04-24T08:00:24;3.45;;;1.00;;
50547;SDS011;38013;48.810;8.818;2023-04-24T08:02:53;1.38;;;0.85;;
50547;SDS011;38013;48.810;8.818;2023-04-24T08:05:19;2.83;;;1.05;;
50547;SDS011;38013;48.810;8.818;2023-04-24T08:07:47;2.65;;;1.13;;
50547;SDS011;38013;48.810;8.818;2023-04-24T08:10:16;3.03;;;1.30;;
50547;SDS011;38013;48.810;8.818;2023-04-24T08:12:43;3.67;;;1.17;;
50547;SDS011;38013;48.810;8.818;2023-04-24T08:15:10;2.92;;;1.30;;
50547;SDS011;38013;48.810;8.818;2023-04-24T08:17:37;3.67;;;1.20;;
50547;SDS011;38013;48.810;8.818;2023-04-24T08:20:04;2.67;;;1.15;;
50547;SDS011;38013;48.810;8.818;2023-04-24T08:22:36;5.30;;;1.48;;
50547;SDS011;38013;48.810;8.818;2023-04-24T08:25:03;2.83;;;1.30;;
50547;SDS011;38013;48.810;8.818;2023-04-24T08:27:30;4.97;;;1.10;;
50547;SDS011;38013;48.810;8.818;2023-04-24T08:29:57;3.47;;;0.80;;
50547;SDS011;38013;48.810;8.818;2023-04-24T08:34:55;2.08;;;0.88;;
50547;SDS011;38013;48.810;8.818;2023-04-24T08:37:23;4.20;;;1.10;;
50547;SDS011;38013;48.810;8.818;2023-04-24T08:39:50;2.30;;;1.00;;
50547;SDS011;38013;48.810;8.818;2023-04-24T08:42:17;3.75;;;1.10;;
50547;SDS011;38013;48.810;8.818;2023-04-24T08:44:45;2.47;;;1.10;;
50547;SDS011;38013;48.810;8.818;2023-04-24T08:47:13;4.38;;;1.00;;
50547;SDS011;38013;48.810;8.818;2023-04-24T08:49:41;3.22;;;1.00;;
50547;SDS011;38013;48.810;8.818;2023-04-24T08:52:09;2.35;;;0.90;;
50547;SDS011;38013;48.810;8.818;2023-04-24T08:54:39;2.58;;;0.90;;
50547;SDS011;38013;48.810;8.818;2023-04-24T08:57:07;2.08;;;1.00;;
50547;SDS011;38013;48.810;8.818;2023-04-24T08:59:37;1.55;;;1.05;;
50547;SDS011;38013;48.810;8.818;2023-04-24T09:02:04;2.83;;;1.00;;
50547;SDS011;38013;48.810;8.818;2023-04-24T09:04:32;2.92;;;0.90;;
50547;SDS011;38013;48.810;8.818;2023-04-24T09:07:00;2.95;;;0.80;;
50547;SDS011;38013;48.810;8.818;2023-04-24T09:09:28;2.03;;;0.95;;
50547;SDS011;38013;48.810;8.818;2023-04-24T09:11:59;1.83;;;0.80;;
50547;SDS011;38013;48.810;8.818;2023-04-24T09:14:27;3.08;;;0.90;;
50547;SDS011;38013;48.810;8.818;2023-04-24T09:16:54;2.70;;;0.90;;
50547;SDS011;38013;48.810;8.818;2023-04-24T09:19:21;2.83;;;1.10;;
50547;SDS011;38013;48.810;8.818;2023-04-24T09:21:48;3.85;;;1.35;;
50547;SDS011;38013;48.810;8.818;2023-04-24T09:24:16;1.80;;;1.00;;
50547;SDS011;38013;48.810;8.818;2023-04-24T09:26:49;2.75;;;1.10;;
50547;SDS011;38013;48.810;8.818;2023-04-24T09:29:27;1.27;;;0.80;;
50547;SDS011;38013;48.810;8.818;2023-04-24T09:31:55;4.05;;;1.08;;
50547;SDS011;38013;48.810;8.818;2023-04-24T09:34:22;1.65;;;0.90;;
50547;SDS011;38013;48.810;8.818;2023-04-24T09:36:51;2.50;;;1.00;;
50547;SDS011;38013;48.810;8.818;2023-04-24T09:39:19;3.13;;;1.17;;
50547;SDS011;38013;48.810;8.818;2023-04-24T09:44:27;3.22;;;1.05;;
50547;SDS011;38013;48.810;8.818;2023-04-24T09:46:57;2.38;;;1.00;;
50547;SDS011;38013;48.810;8.818;2023-04-24T09:49:26;2.45;;;1.10;;
50547;SDS011;38013;48.810;8.818;2023-04-24T09:52:05;1.33;;;0.75;;
50547;SDS011;38013;48.810;8.818;2023-04-24T09:54:37;2.13;;;0.93;;
50547;SDS011;38013;48.810;8.818;2023-04-24T09:57:08;1.60;;;1.00;;
50547;SDS011;38013;48.810;8.818;2023-04-24T09:59:35;2.25;;;0.90;;
50547;SDS011;38013;48.810;8.818;2023-04-24T10:02:20;3.53;;;1.00;;
50547;SDS011;38013;48.810;8.818;2023-04-24T10:04:54;2.17;;;1.00;;
50547;SDS011;38013;48.810;8.818;2023-04-24T10:07:25;2.72;;;0.88;;
50547;SDS011;38013;48.810;8.818;2023-04-24T10:09:52;2.60;;;1.30;;
50547;SDS011;38013;48.810;8.818;2023-04-24T10:12:20;2.92;;;1.17;;
50547;SDS011;38013;48.810;8.818;2023-04-24T10:14:47;2.70;;;1.10;;
50547;SDS011;38013;48.810;8.818;2023-04-24T10:17:15;2.53;;;1.10;;
50547;SDS011;38013;48.810;8.818;2023-04-24T10:19:43;4.15;;;1.08;;
50547;SDS011;38013;48.810;8.818;2023-04-24T10:22:11;4.43;;;1.10;;
50547;SDS011;38013;48.810;8.818;2023-04-24T10:24:39;1.77;;;0.93;;
50547;SDS011;38013;48.810;8.818;2023-04-24T10:27:06;4.13;;;1.20;;
50547;SDS011;38013;48.810;8.818;2023-04-24T10:29:35;2.30;;;0.93;;
50547;SDS011;38013;48.810;8.818;2023-04-24T10:32:05;1.83;;;0.82;;
50547;SDS011;38013;48.810;8.818;2023-04-24T10:34:33;2.45;;;1.00;;
50547;SDS011;38013;48.810;8.818;2023-04-24T10:37:00;2.42;;;1.00;;
50547;SDS011;38013;48.810;8.818;2023-04-24T10:39:28;3.92;;;1.52;;
50547;SDS011;38013;48.810;8.818;2023-04-24T10:41:56;2.97;;;0.90;;
50547;SDS011;38013;48.810;8.818;2023-04-24T10:44:24;2.75;;;1.00;;
50547;SDS011;38013;48.810;8.818;2023-04-24T10:46:54;3.78;;;1.00;;
50547;SDS011;38013;48.810;8.818;2023-04-24T10:49:28;3.17;;;0.93;;
50547;SDS011;38013;48.810;8.818;2023-04-24T10:52:01;1.65;;;0.90;;
50547;SDS011;38013;48.810;8.818;2023-04-24T10:59:45;2.10;;;1.10;;
50547;SDS011;38013;48.810;8.818;2023-04-24T11:02:14;2.63;;;1.10;;
50547;SDS011;38013;48.810;8.818;2023-04-24T11:04:42;2.65;;;0.90;;
50547;SDS011;38013;48.810;8.818;2023-04-24T11:07:09;1.60;;;0.85;;
50547;SDS011;38013;48.810;8.818;2023-04-24T11:09:37;4.47;;;0.77;;
50547;SDS011;38013;48.810;8.818;2023-04-24T11:12:08;2.60;;;1.10;;
50547;SDS011;38013;48.810;8.818;2023-04-24T11:17:34;1.65;;;0.80;;
50547;SDS011;38013;48.810;8.818;2023-04-24T11:20:07;1.23;;;0.77;;
50547;SDS011;38013;48.810;8.818;2023-04-24T11:22:54;3.83;;;1.00;;
50547;SDS011;38013;48.810;8.818;2023-04-24T11:25:21;1.20;;;0.77;;
50547;SDS011;38013;48.810;8.818;2023-04-24T11:27:49;3.50;;;0.90;;
50547;SDS011;38013;48.810;8.818;2023-04-24T11:30:19;1.98;;;0.80;;
50547;SDS011;38013;48.810;8.818;2023-04-24T11:32:47;1.70;;;1.00;;
50547;SDS011;38013;48.810;8.818;2023-04-24T11:35:17;2.15;;;0.88;;
50547;SDS011;38013;48.810;8.818;2023-04-24T11:37:54;2.35;;;1.30;;
50547;SDS011;38013;48.810;8.818;2023-04-24T11:40:24;2.90;;;1.20;;
50547;SDS011;38013;48.810;8.818;2023-04-24T11:42:52;2.90;;;1.35;;
50547;SDS011;38013;48.810;8.818;2023-04-24T11:45:22;1.50;;;0.98;;
50547;SDS011;38013;48.810;8.818;2023-04-24T11:47:52;2.50;;;1.05;;
50547;SDS011;38013;48.810;8.818;2023-04-24T11:50:22;2.88;;;1.10;;
50547;SDS011;38013;48.810;8.818;2023-04-24T11:52:53;4.63;;;1.08;;
50547;SDS011;38013;48.810;8.818;2023-04-24T11:57:50;2.47;;;1.30;;
50547;SDS011;38013;48.810;8.818;2023-04-24T12:00:24;2.97;;;1.10;;
50547;SDS011;38013;48.810;8.818;2023-04-24T12:05:51;1.27;;;0.80;;
50547;SDS011;38013;48.810;8.818;2023-04-24T12:08:28;1.40;;;0.85;;
50547;SDS011;38013;48.810;8.818;2023-04-24T12:10:55;1.73;;;1.00;;
50547;SDS011;38013;48.810;8.818;2023-04-24T12:13:22;4.78;;;1.15;;
50547;SDS011;38013;48.810;8.818;2023-04-24T12:15:51;3.05;;;1.40;;
50547;SDS011;38013;48.810;8.818;2023-04-24T12:18:18;2.17;;;0.95;;
50547;SDS011;38013;48.810;8.818;2023-04-24T12:20:49;1.83;;;0.90;;
50547;SDS011;38013;48.810;8.818;2023-04-24T12:23:16;1.92;;;0.73;;
50547;SDS011;38013;48.810;8.818;2023-04-24T12:25:59;3.70;;;0.90;;
50547;SDS011;38013;48.810;8.818;2023-04-24T12:28:36;2.35;;;1.00;;
50547;SDS011;38013;48.810;8.818;2023-04-24T12:31:05;1.95;;;1.00;;
50547;SDS011;38013;48.810;8.818;2023-04-24T12:33:34;2.45;;;0.80;;
50547;SDS011;38013;48.810;8.818;2023-04-24T12:36:01;2.70;;;0.90;;
50547;SDS011;38013;48.810;8.818;2023-04-24T12:38:29;2.03;;;0.80;;
50547;SDS011;38013;48.810;8.818;2023-04-24T12:43:31;1.90;;;0.70;;
50547;SDS011;38013;48.810;8.818;2023-04-24T12:45:59;1.73;;;0.88;;
50547;SDS011;38013;48.810;8.818;2023-04-24T12:48:26;2.95;;;1.20;;
50547;SDS011;38013;48.810;8.818;2023-04-24T12:50:54;2.92;;;1.20;;
50547;SDS011;38013;48.810;8.818;2023-04-24T12:53:22;2.72;;;1.30;;
50547;SDS011;38013;48.810;8.818;2023-04-24T12:55:49;2.80;;;1.40;;
50547;SDS011;38013;48.810;8.818;2023-04-24T12:58:19;2.70;;;1.08;;
50547;SDS011;38013;48.810;8.818;2023-04-24T13:00:47;5.13;;;1.38;;
50547;SDS011;38013;48.810;8.818;2023-04-24T13:03:14;3.95;;;1.40;;
50547;SDS011;38013;48.810;8.818;2023-04-24T13:05:43;2.85;;;1.20;;
50547;SDS011;38013;48.810;8.818;2023-04-24T13:08:10;3.92;;;1.20;;
50547;SDS011;38013;48.810;8.818;2023-04-24T13:10:38;2.58;;;1.45;;
50547;SDS011;38013;48.810;8.818;2023-04-24T13:13:06;3.22;;;1.30;;
50547;SDS011;38013;48.810;8.818;2023-04-24T13:15:33;2.63;;;1.27;;
50547;SDS011;38013;48.810;8.818;2023-04-24T13:18:01;2.20;;;1.20;;
50547;SDS011;38013;48.810;8.818;2023-04-24T13:20:28;2.40;;;1.17;;
50547;SDS011;38013;48.810;8.818;2023-04-24T13:22:55;1.98;;;1.02;;
50547;SDS011;38013;48.810;8.818;2023-04-24T13:25:22;2.67;;;1.15;;
50547;SDS011;38013;48.810;8.818;2023-04-24T13:27:49;1.70;;;1.00;;
50547;SDS011;38013;48.810;8.818;2023-04-24T13:30:16;5.13;;;0.95;;
50547;SDS011;38013;48.810;8.818;2023-04-24T13:32:43;2.67;;;1.15;;
50547;SDS011;38013;48.810;8.818;2023-04-24T13:35:10;3.90;;;1.27;;
50547;SDS011;38013;48.810;8.818;2023-04-24T13:37:38;2.72;;;1.27;;
50547;SDS011;38013;48.810;8.818;2023-04-24T13:40:05;3.08;;;1.20;;
50547;SDS011;38013;48.810;8.818;2023-04-24T13:42:33;3.40;;;1.20;;
50547;SDS011;38013;48.810;8.818;2023-04-24T13:45:00;2.20;;;1.00;;
50547;SDS011;38013;48.810;8.818;2023-04-24T13:47:36;2.42;;;1.10;;
50547;SDS011;38013;48.810;8.818;2023-04-24T13:50:03;2.35;;;1.10;;
50547;SDS011;38013;48.810;8.818;2023-04-24T13:52:30;2.22;;;1.10;;
50547;SDS011;38013;48.810;8.818;2023-04-24T13:54:57;2.22;;;0.98;;
50547;SDS011;38013;48.810;8.818;2023-04-24T13:57:24;3.22;;;1.42;;
50547;SDS011;38013;48.810;8.818;2023-04-24T13:59:51;3.13;;;1.40;;
50547;SDS011;38013;48.810;8.818;2023-04-24T14:02:18;3.00;;;1.48;;
50547;SDS011;38013;48.810;8.818;2023-04-24T14:04:45;3.55;;;1.20;;
50547;SDS011;38013;48.810;8.818;2023-04-24T14:07:14;2.92;;;1.42;;
50547;SDS011;38013;48.810;8.818;2023-04-24T14:09:41;2.65;;;1.30;;
50547;SDS011;38013;48.810;8.818;2023-04-24T14:12:08;3.17;;;1.33;;
50547;SDS011;38013;48.810;8.818;2023-04-24T14:14:35;5.50;;;1.40;;
50547;SDS011;38013;48.810;8.818;2023-04-24T14:17:02;3.33;;;1.40;;
50547;SDS011;38013;48.810;8.818;2023-04-24T14:19:29;2.50;;;1.20;;
50547;SDS011;38013;48.810;8.818;2023-04-24T14:21:55;4.25;;;1.52;;
50547;SDS011;38013;48.810;8.818;2023-04-24T14:24:24;3.15;;;1.27;;
50547;SDS011;38013;48.810;8.818;2023-04-24T14:26:51;3.22;;;1.30;;
50547;SDS011;38013;48.810;8.818;2023-04-24T14:29:18;2.30;;;1.20;;
50547;SDS011;38013;48.810;8.818;2023-04-24T14:31:45;2.90;;;1.20;;
50547;SDS011;38013;48.810;8.818;2023-04-24T14:34:13;3.00;;;1.17;;
50547;SDS011;38013;48.810;8.818;2023-04-24T14:36:40;1.75;;;1.13;;
50547;SDS011;38013;48.810;8.818;2023-04-24T14:39:08;2.63;;;1.23;;
50547;SDS011;38013;48.810;8.818;2023-04-24T14:41:36;3.42;;;1.27;;
50547;SDS011;38013;48.810;8.818;2023-04-24T14:44:03;6.43;;;1.70;;
50547;SDS011;38013;48.810;8.818;2023-04-24T14:46:31;2.47;;;1.30;;
50547;SDS011;38013;48.810;8.818;2023-04-24T14:48:58;2.67;;;1.30;;
50547;SDS011;38013;48.810;8.818;2023-04-24T14:51:25;3.78;;;1.30;;
50547;SDS011;38013;48.810;8.818;2023-04-24T14:53:52;4.25;;;1.30;;
50547;SDS011;38013;48.810;8.818;2023-04-24T14:56:19;5.50;;;1.30;;
50547;SDS011;38013;48.810;8.818;2023-04-24T14:58:46;3.17;;;1.20;;
50547;SDS011;38013;48.810;8.818;2023-04-24T15:01:13;1.77;;;1.05;;
50547;SDS011;38013;48.810;8.818;2023-04-24T15:03:41;4.78;;;1.38;;
50547;SDS011;38013;48.810;8.818;2023-04-24T15:06:08;3.60;;;0.98;;
50547;SDS011;38013;48.810;8.818;2023-04-24T15:08:35;2.38;;;0.98;;
50547;SDS011;38013;48.810;8.818;2023-04-24T15:11:02;2.28;;;0.98;;
50547;SDS011;38013;48.810;8.818;2023-04-24T15:13:29;1.83;;;0.85;;
50547;SDS011;38013;48.810;8.818;2023-04-24T15:15:56;1.42;;;0.90;;
50547;SDS011;38013;48.810;8.818;2023-04-24T15:18:23;2.17;;;0.95;;
50547;SDS011;38013;48.810;8.818;2023-04-24T15:20:50;2.15;;;1.00;;